ARM weather

Armidale Airport
Armidale, New South Wales, Australia

Public forecast

Using degrees Celsius for public forecast. Weather courtesy of forecast.io.

Closest aviation weather report (METAR) to Armidale Airport

Closest report is Tamworth Airport, 51.9 nm (96.1 km) SW. Retrieved 2019/10/15 09:30 UTC (17 minutes ago):

YSTW 150930Z AUTO 31002KT 9999 // BKN120 25/06 Q1010 RF000/0000

Closest aviation forecast (TAF) to Armidale Airport

Closest forecast is Tamworth Airport, 51.9 nm (96.1 km) SW. Retrieved 2019/10/15 06:36 UTC (3 hours ago):

TAF YSTW 150447Z 1506/1524 20008KT CAVOK BECMG 1508/1510 15005KT CAVOK FM152200 33010KT CAVOK